KHWO/HWO METAR and TAF weather

Enter ICAO airport designator
Station Type Date Time Source
KHWO METAR 2018/12/19 08:53 UTC NOAA

KHWO 190853Z AUTO 33003KT 10SM FEW039 16/14 A3004 RMK AO2 SLP173 T01560139 55006 $


Station Type Date Time Source
KHWO Decoded METAR 2018/12/19 08:53 UTC NOAA

HOLLYWOOD NORTH PERRY AIRPORT , FL, United States (KHWO) 26-00N 080-14W 2M
Dec 19, 2018 - 03:53 AM EST / 2018.12.19 0853 UTC
Wind: from the NNW (330 degrees) at 3 MPH (3 KT):0
Visibility: 10 mile(s):0
Sky conditions: mostly clear
Temperature: 60.1 F (15.6 C)
Dew Point: 57.0 F (13.9 C)
Relative Humidity: 89%
Pressure (altimeter): 30.04 in. Hg (1017 hPa)
Pressure tendency: 0.02 inches (0.6 hPa) lower than three hours ago
ob: KHWO 190853Z AUTO 33003KT 10SM FEW039 16/14 A3004 RMK AO2 SLP173 T01560139 55006
cycle: 9

Station Type Date Time Source
KHWO TAF UTC NOAA

Error!


Example: see airport list